sensor_id;sensor_type;location;lat;lon;timestamp;temperature;humidity
46608;DHT22;32330;51.936;7.184;2023-07-29T00:00:25;19.60;99.90
46608;DHT22;32330;51.936;7.184;2023-07-29T00:03:10;19.60;99.90
46608;DHT22;32330;51.936;7.184;2023-07-29T00:06:05;19.60;99.90
46608;DHT22;32330;51.936;7.184;2023-07-29T00:09:03;19.50;99.90
46608;DHT22;32330;51.936;7.184;2023-07-29T00:11:57;19.50;99.90
46608;DHT22;32330;51.936;7.184;2023-07-29T00:15:36;19.50;99.90
46608;DHT22;32330;51.936;7.184;2023-07-29T00:18:12;19.50;99.90
46608;DHT22;32330;51.936;7.184;2023-07-29T00:21:51;19.50;99.90
46608;DHT22;32330;51.936;7.184;2023-07-29T00:24:45;19.40;99.90
46608;DHT22;32330;51.936;7.184;2023-07-29T00:27:44;19.40;99.90
46608;DHT22;32330;51.936;7.184;2023-07-29T00:30:27;19.40;99.90
46608;DHT22;32330;51.936;7.184;2023-07-29T00:33:35;19.40;99.90
46608;DHT22;32330;51.936;7.184;2023-07-29T00:36:54;19.30;99.90
46608;DHT22;32330;51.936;7.184;2023-07-29T00:39:49;19.30;99.90
46608;DHT22;32330;51.936;7.184;2023-07-29T00:45:40;19.20;99.90
46608;DHT22;32330;51.936;7.184;2023-07-29T00:48:58;19.20;99.90
46608;DHT22;32330;51.936;7.184;2023-07-29T00:51:55;19.20;99.90
46608;DHT22;32330;51.936;7.184;2023-07-29T00:54:51;19.20;99.90
46608;DHT22;32330;51.936;7.184;2023-07-29T00:57:37;19.10;99.90
46608;DHT22;32330;51.936;7.184;2023-07-29T01:00:54;19.10;99.90
46608;DHT22;32330;51.936;7.184;2023-07-29T01:03:40;19.10;99.90
46608;DHT22;32330;51.936;7.184;2023-07-29T01:06:49;19.00;99.90
46608;DHT22;32330;51.936;7.184;2023-07-29T01:09:41;19.00;99.90
46608;DHT22;32330;51.936;7.184;2023-07-29T01:12:27;19.10;99.90
46608;DHT22;32330;51.936;7.184;2023-07-29T01:15:13;19.00;99.90
46608;DHT22;32330;51.936;7.184;2023-07-29T01:18:09;19.00;99.90
46608;DHT22;32330;51.936;7.184;2023-07-29T01:21:07;19.00;99.90
46608;DHT22;32330;51.936;7.184;2023-07-29T01:24:22;19.10;99.90
46608;DHT22;32330;51.936;7.184;2023-07-29T01:27:18;19.10;99.90
46608;DHT22;32330;51.936;7.184;2023-07-29T01:29:51;19.10;99.90
46608;DHT22;32330;51.936;7.184;2023-07-29T01:32:48;19.10;99.90
46608;DHT22;32330;51.936;7.184;2023-07-29T01:35:57;19.10;99.90
46608;DHT22;32330;51.936;7.184;2023-07-29T01:38:40;19.20;99.90
46608;DHT22;32330;51.936;7.184;2023-07-29T01:41:37;19.20;99.90
46608;DHT22;32330;51.936;7.184;2023-07-29T01:47:41;19.20;99.90
46608;DHT22;32330;51.936;7.184;2023-07-29T02:01:24;19.20;99.90
46608;DHT22;32330;51.936;7.184;2023-07-29T02:05:16;19.30;99.90
46608;DHT22;32330;51.936;7.184;2023-07-29T02:21:00;19.30;99.90
46608;DHT22;32330;51.936;7.184;2023-07-29T02:24:31;19.20;99.90
46608;DHT22;32330;51.936;7.184;2023-07-29T02:31:29;19.20;99.90
46608;DHT22;32330;51.936;7.184;2023-07-29T02:34:46;19.30;99.90
46608;DHT22;32330;51.936;7.184;2023-07-29T02:38:15;19.30;99.90
46608;DHT22;32330;51.936;7.184;2023-07-29T02:44:07;19.30;99.90
46608;DHT22;32330;51.936;7.184;2023-07-29T02:47:01;19.30;99.90
46608;DHT22;32330;51.936;7.184;2023-07-29T02:50:19;19.30;99.90
46608;DHT22;32330;51.936;7.184;2023-07-29T02:53:28;19.30;99.90
46608;DHT22;32330;51.936;7.184;2023-07-29T02:56:25;19.30;99.90
46608;DHT22;32330;51.936;7.184;2023-07-29T03:00:04;19.30;99.90
46608;DHT22;32330;51.936;7.184;2023-07-29T03:03:14;19.30;99.90
46608;DHT22;32330;51.936;7.184;2023-07-29T03:06:40;19.30;99.90
46608;DHT22;32330;51.936;7.184;2023-07-29T03:09:38;19.30;99.90
46608;DHT22;32330;51.936;7.184;2023-07-29T03:12:54;19.30;99.90
46608;DHT22;32330;51.936;7.184;2023-07-29T03:23:55;19.30;99.90
46608;DHT22;32330;51.936;7.184;2023-07-29T03:34:11;19.40;99.90
46608;DHT22;32330;51.936;7.184;2023-07-29T03:39:54;19.40;99.90
46608;DHT22;32330;51.936;7.184;2023-07-29T03:42:38;19.40;99.90
46608;DHT22;32330;51.936;7.184;2023-07-29T03:45:47;19.40;99.90
46608;DHT22;32330;51.936;7.184;2023-07-29T03:49:15;19.40;99.90
46608;DHT22;32330;51.936;7.184;2023-07-29T03:52:19;19.40;99.90
46608;DHT22;32330;51.936;7.184;2023-07-29T03:55:14;19.50;99.90
46608;DHT22;32330;51.936;7.184;2023-07-29T03:58:01;19.40;99.90
46608;DHT22;32330;51.936;7.184;2023-07-29T04:01:21;19.40;99.90
46608;DHT22;32330;51.936;7.184;2023-07-29T04:04:25;19.50;99.90
46608;DHT22;32330;51.936;7.184;2023-07-29T04:07:33;19.50;99.90
46608;DHT22;32330;51.936;7.184;2023-07-29T04:10:39;19.50;99.90
46608;DHT22;32330;51.936;7.184;2023-07-29T04:13:46;19.50;99.90
46608;DHT22;32330;51.936;7.184;2023-07-29T04:17:07;19.40;99.90
46608;DHT22;32330;51.936;7.184;2023-07-29T04:20:11;19.50;99.90
46608;DHT22;32330;51.936;7.184;2023-07-29T04:23:18;19.50;99.90
46608;DHT22;32330;51.936;7.184;2023-07-29T04:30:38;19.40;99.90
46608;DHT22;32330;51.936;7.184;2023-07-29T04:49:53;19.50;99.90
46608;DHT22;32330;51.936;7.184;2023-07-29T04:53:10;19.50;99.90
46608;DHT22;32330;51.936;7.184;2023-07-29T04:57:04;19.50;99.90
46608;DHT22;32330;51.936;7.184;2023-07-29T05:00:18;19.60;99.90
46608;DHT22;32330;51.936;7.184;2023-07-29T05:03:39;19.60;99.90
46608;DHT22;32330;51.936;7.184;2023-07-29T05:06:57;19.50;99.90
46608;DHT22;32330;51.936;7.184;2023-07-29T05:16:28;19.70;99.90
46608;DHT22;32330;51.936;7.184;2023-07-29T05:27:46;19.60;99.90
46608;DHT22;32330;51.936;7.184;2023-07-29T05:30:15;19.50;99.90
46608;DHT22;32330;51.936;7.184;2023-07-29T05:32:42;19.50;99.90
46608;DHT22;32330;51.936;7.184;2023-07-29T05:35:10;19.50;99.90
46608;DHT22;32330;51.936;7.184;2023-07-29T05:37:38;19.50;99.90
46608;DHT22;32330;51.936;7.184;2023-07-29T05:40:06;19.60;99.90
46608;DHT22;32330;51.936;7.184;2023-07-29T05:42:34;19.60;99.90
46608;DHT22;32330;51.936;7.184;2023-07-29T05:45:02;19.70;99.90
46608;DHT22;32330;51.936;7.184;2023-07-29T05:47:30;19.70;99.90
46608;DHT22;32330;51.936;7.184;2023-07-29T05:49:57;19.70;99.90
46608;DHT22;32330;51.936;7.184;2023-07-29T05:52:25;19.70;99.90
46608;DHT22;32330;51.936;7.184;2023-07-29T05:54:52;19.70;99.90
46608;DHT22;32330;51.936;7.184;2023-07-29T05:57:19;19.70;99.90
46608;DHT22;32330;51.936;7.184;2023-07-29T05:59:46;19.70;99.70
46608;DHT22;32330;51.936;7.184;2023-07-29T06:02:13;19.70;99.00
46608;DHT22;32330;51.936;7.184;2023-07-29T06:04:41;19.70;98.70
46608;DHT22;32330;51.936;7.184;2023-07-29T06:07:08;19.70;98.20
46608;DHT22;32330;51.936;7.184;2023-07-29T06:09:35;19.60;97.10
46608;DHT22;32330;51.936;7.184;2023-07-29T06:12:03;19.50;95.00
46608;DHT22;32330;51.936;7.184;2023-07-29T06:14:30;19.60;95.20
46608;DHT22;32330;51.936;7.184;2023-07-29T06:16:57;19.60;94.50
46608;DHT22;32330;51.936;7.184;2023-07-29T06:19:24;19.60;94.20
46608;DHT22;32330;51.936;7.184;2023-07-29T06:21:55;19.60;94.80
46608;DHT22;32330;51.936;7.184;2023-07-29T06:24:22;19.50;92.50
46608;DHT22;32330;51.936;7.184;2023-07-29T06:26:49;19.60;94.60
46608;DHT22;32330;51.936;7.184;2023-07-29T06:29:16;19.70;93.60
46608;DHT22;32330;51.936;7.184;2023-07-29T06:31:42;19.70;90.40
46608;DHT22;32330;51.936;7.184;2023-07-29T06:34:09;19.60;81.20
46608;DHT22;32330;51.936;7.184;2023-07-29T06:36:37;19.60;79.70
46608;DHT22;32330;51.936;7.184;2023-07-29T06:39:05;19.50;78.50
46608;DHT22;32330;51.936;7.184;2023-07-29T06:44:49;19.50;62.80
46608;DHT22;32330;51.936;7.184;2023-07-29T06:47:16;19.40;62.40
46608;DHT22;32330;51.936;7.184;2023-07-29T06:49:45;19.50;65.70
46608;DHT22;32330;51.936;7.184;2023-07-29T06:52:13;19.50;57.00
46608;DHT22;32330;51.936;7.184;2023-07-29T06:54:41;19.50;64.90
46608;DHT22;32330;51.936;7.184;2023-07-29T06:57:08;19.60;59.80
46608;DHT22;32330;51.936;7.184;2023-07-29T06:59:35;19.60;56.80
46608;DHT22;32330;51.936;7.184;2023-07-29T07:02:02;19.50;49.80
46608;DHT22;32330;51.936;7.184;2023-07-29T07:04:29;19.60;55.10
46608;DHT22;32330;51.936;7.184;2023-07-29T07:06:56;19.70;51.40
46608;DHT22;32330;51.936;7.184;2023-07-29T07:09:23;19.70;43.90
46608;DHT22;32330;51.936;7.184;2023-07-29T07:11:51;19.70;53.50
46608;DHT22;32330;51.936;7.184;2023-07-29T07:14:18;19.80;54.80
46608;DHT22;32330;51.936;7.184;2023-07-29T07:16:45;19.90;55.10
46608;DHT22;32330;51.936;7.184;2023-07-29T07:19:12;20.00;57.70
46608;DHT22;32330;51.936;7.184;2023-07-29T07:21:39;20.10;44.70
46608;DHT22;32330;51.936;7.184;2023-07-29T07:24:06;20.10;54.90
46608;DHT22;32330;51.936;7.184;2023-07-29T07:26:33;20.20;46.80
46608;DHT22;32330;51.936;7.184;2023-07-29T07:29:02;20.30;37.20
46608;DHT22;32330;51.936;7.184;2023-07-29T07:31:32;20.40;46.10
46608;DHT22;32330;51.936;7.184;2023-07-29T07:33:59;20.40;44.30
46608;DHT22;32330;51.936;7.184;2023-07-29T07:36:27;20.40;44.80
46608;DHT22;32330;51.936;7.184;2023-07-29T07:38:54;20.40;42.10
46608;DHT22;32330;51.936;7.184;2023-07-29T07:41:21;20.30;42.90
46608;DHT22;32330;51.936;7.184;2023-07-29T07:43:49;20.40;38.90
46608;DHT22;32330;51.936;7.184;2023-07-29T07:46:18;20.50;44.40
46608;DHT22;32330;51.936;7.184;2023-07-29T07:48:45;20.50;39.50
46608;DHT22;32330;51.936;7.184;2023-07-29T07:51:12;20.50;36.00
46608;DHT22;32330;51.936;7.184;2023-07-29T07:53:39;20.50;36.50
46608;DHT22;32330;51.936;7.184;2023-07-29T07:56:06;20.70;43.30
46608;DHT22;32330;51.936;7.184;2023-07-29T07:58:34;20.60;36.80
46608;DHT22;32330;51.936;7.184;2023-07-29T08:01:02;20.70;24.90
46608;DHT22;32330;51.936;7.184;2023-07-29T08:03:31;20.80;28.00
46608;DHT22;32330;51.936;7.184;2023-07-29T08:05:58;21.00;18.40
46608;DHT22;32330;51.936;7.184;2023-07-29T08:08:25;21.10;11.50
46608;DHT22;32330;51.936;7.184;2023-07-29T08:10:53;21.20;26.40
46608;DHT22;32330;51.936;7.184;2023-07-29T08:13:20;21.20;1.00
46608;DHT22;32330;51.936;7.184;2023-07-29T08:15:48;21.30;1.00
46608;DHT22;32330;51.936;7.184;2023-07-29T08:18:15;21.30;7.50
46608;DHT22;32330;51.936;7.184;2023-07-29T08:20:52;21.30;1.00
46608;DHT22;32330;51.936;7.184;2023-07-29T08:23:21;21.40;8.20
46608;DHT22;32330;51.936;7.184;2023-07-29T08:25:52;21.50;7.40
46608;DHT22;32330;51.936;7.184;2023-07-29T08:28:19;21.70;1.00
46608;DHT22;32330;51.936;7.184;2023-07-29T08:30:46;21.80;1.00
46608;DHT22;32330;51.936;7.184;2023-07-29T08:33:14;22.00;1.00
46608;DHT22;32330;51.936;7.184;2023-07-29T08:35:41;22.20;1.00
46608;DHT22;32330;51.936;7.184;2023-07-29T08:38:09;22.20;1.00
46608;DHT22;32330;51.936;7.184;2023-07-29T08:40:42;22.40;1.00
46608;DHT22;32330;51.936;7.184;2023-07-29T08:43:12;22.50;1.00
46608;DHT22;32330;51.936;7.184;2023-07-29T08:45:41;22.80;1.00
46608;DHT22;32330;51.936;7.184;2023-07-29T08:48:11;23.10;1.00
46608;DHT22;32330;51.936;7.184;2023-07-29T08:50:38;23.10;99.90
46608;DHT22;32330;51.936;7.184;2023-07-29T08:53:05;23.30;99.90
46608;DHT22;32330;51.936;7.184;2023-07-29T08:55:34;23.20;99.90
46608;DHT22;32330;51.936;7.184;2023-07-29T08:58:01;23.00;99.90
46608;DHT22;32330;51.936;7.184;2023-07-29T09:00:29;23.20;99.90
46608;DHT22;32330;51.936;7.184;2023-07-29T09:02:56;23.40;99.90
46608;DHT22;32330;51.936;7.184;2023-07-29T09:05:28;23.40;99.90
46608;DHT22;32330;51.936;7.184;2023-07-29T09:07:55;23.50;40.50
46608;DHT22;32330;51.936;7.184;2023-07-29T09:10:22;23.50;99.90
46608;DHT22;32330;51.936;7.184;2023-07-29T09:12:53;23.70;99.90
46608;DHT22;32330;51.936;7.184;2023-07-29T09:15:28;23.90;99.90
46608;DHT22;32330;51.936;7.184;2023-07-29T09:17:55;24.20;99.90
46608;DHT22;32330;51.936;7.184;2023-07-29T09:20:26;24.30;99.90
46608;DHT22;32330;51.936;7.184;2023-07-29T09:22:54;24.40;99.90
46608;DHT22;32330;51.936;7.184;2023-07-29T09:25:25;24.20;99.90
46608;DHT22;32330;51.936;7.184;2023-07-29T09:27:58;24.00;99.90
46608;DHT22;32330;51.936;7.184;2023-07-29T09:30:26;24.00;99.90
46608;DHT22;32330;51.936;7.184;2023-07-29T09:32:55;24.30;99.90
46608;DHT22;32330;51.936;7.184;2023-07-29T09:35:23;24.40;99.90
46608;DHT22;32330;51.936;7.184;2023-07-29T09:37:52;24.60;59.40
46608;DHT22;32330;51.936;7.184;2023-07-29T09:40:19;24.60;99.90
46608;DHT22;32330;51.936;7.184;2023-07-29T09:42:50;24.70;1.00
46608;DHT22;32330;51.936;7.184;2023-07-29T09:45:26;24.50;16.10
46608;DHT22;32330;51.936;7.184;2023-07-29T09:47:54;24.50;61.30
46608;DHT22;32330;51.936;7.184;2023-07-29T09:50:23;24.50;40.80
46608;DHT22;32330;51.936;7.184;2023-07-29T09:52:51;24.30;40.20
46608;DHT22;32330;51.936;7.184;2023-07-29T09:55:19;24.30;20.30
46608;DHT22;32330;51.936;7.184;2023-07-29T09:57:48;24.10;1.00
46608;DHT22;32330;51.936;7.184;2023-07-29T10:00:15;24.20;31.50
46608;DHT22;32330;51.936;7.184;2023-07-29T10:02:43;24.20;1.00
46608;DHT22;32330;51.936;7.184;2023-07-29T10:05:10;24.30;1.00
46608;DHT22;32330;51.936;7.184;2023-07-29T10:07:39;24.10;99.90
46608;DHT22;32330;51.936;7.184;2023-07-29T10:10:07;23.80;1.00
46608;DHT22;32330;51.936;7.184;2023-07-29T10:12:35;23.60;1.00
46608;DHT22;32330;51.936;7.184;2023-07-29T10:15:05;23.50;13.50
46608;DHT22;32330;51.936;7.184;2023-07-29T10:17:34;23.60;74.60
46608;DHT22;32330;51.936;7.184;2023-07-29T10:20:05;23.70;92.80
46608;DHT22;32330;51.936;7.184;2023-07-29T10:22:34;23.70;93.10
46608;DHT22;32330;51.936;7.184;2023-07-29T10:25:04;23.70;93.10
46608;DHT22;32330;51.936;7.184;2023-07-29T10:27:39;23.80;84.50
46608;DHT22;32330;51.936;7.184;2023-07-29T10:30:11;23.90;2.80
46608;DHT22;32330;51.936;7.184;2023-07-29T10:32:40;24.00;1.00
46608;DHT22;32330;51.936;7.184;2023-07-29T10:35:10;24.30;1.00
46608;DHT22;32330;51.936;7.184;2023-07-29T10:37:38;24.50;1.00
46608;DHT22;32330;51.936;7.184;2023-07-29T10:40:07;24.60;99.90
46608;DHT22;32330;51.936;7.184;2023-07-29T10:43:02;24.60;99.90
46608;DHT22;32330;51.936;7.184;2023-07-29T10:45:37;24.80;1.00
46608;DHT22;32330;51.936;7.184;2023-07-29T10:48:11;24.90;99.90
46608;DHT22;32330;51.936;7.184;2023-07-29T10:50:40;25.30;99.90
46608;DHT22;32330;51.936;7.184;2023-07-29T10:53:07;25.10;99.90
46608;DHT22;32330;51.936;7.184;2023-07-29T10:55:35;25.20;95.50
46608;DHT22;32330;51.936;7.184;2023-07-29T10:58:08;25.10;99.90
46608;DHT22;32330;51.936;7.184;2023-07-29T11:00:36;25.00;1.00
46608;DHT22;32330;51.936;7.184;2023-07-29T11:03:05;25.00;91.70
46608;DHT22;32330;51.936;7.184;2023-07-29T11:05:46;25.20;30.70
46608;DHT22;32330;51.936;7.184;2023-07-29T11:08:21;25.40;99.90
46608;DHT22;32330;51.936;7.184;2023-07-29T11:11:08;25.20;1.00
46608;DHT22;32330;51.936;7.184;2023-07-29T11:13:38;25.50;99.90
46608;DHT22;32330;51.936;7.184;2023-07-29T11:16:06;25.70;99.90
46608;DHT22;32330;51.936;7.184;2023-07-29T11:18:34;25.80;1.00
46608;DHT22;32330;51.936;7.184;2023-07-29T11:21:04;25.40;1.00
46608;DHT22;32330;51.936;7.184;2023-07-29T11:23:32;25.20;12.30
46608;DHT22;32330;51.936;7.184;2023-07-29T11:26:00;25.20;99.90
46608;DHT22;32330;51.936;7.184;2023-07-29T11:28:28;25.60;99.90
46608;DHT22;32330;51.936;7.184;2023-07-29T11:30:55;25.50;91.00
46608;DHT22;32330;51.936;7.184;2023-07-29T11:33:24;25.20;99.90
46608;DHT22;32330;51.936;7.184;2023-07-29T11:35:54;25.00;46.30
46608;DHT22;32330;51.936;7.184;2023-07-29T11:38:22;25.00;99.90
46608;DHT22;32330;51.936;7.184;2023-07-29T11:40:58;25.00;99.90
46608;DHT22;32330;51.936;7.184;2023-07-29T11:43:25;24.70;99.90
46608;DHT22;32330;51.936;7.184;2023-07-29T11:45:53;24.80;99.90
46608;DHT22;32330;51.936;7.184;2023-07-29T11:48:28;24.70;99.90
46608;DHT22;32330;51.936;7.184;2023-07-29T11:50:58;24.60;99.90
46608;DHT22;32330;51.936;7.184;2023-07-29T11:53:28;24.60;52.20
46608;DHT22;32330;51.936;7.184;2023-07-29T11:55:56;24.60;99.90
46608;DHT22;32330;51.936;7.184;2023-07-29T11:58:24;25.00;99.90
46608;DHT22;32330;51.936;7.184;2023-07-29T12:00:51;25.30;99.90
46608;DHT22;32330;51.936;7.184;2023-07-29T12:03:19;25.90;99.90
46608;DHT22;32330;51.936;7.184;2023-07-29T12:05:46;26.00;99.90
46608;DHT22;32330;51.936;7.184;2023-07-29T12:08:14;25.70;99.90
46608;DHT22;32330;51.936;7.184;2023-07-29T12:10:43;25.50;93.10
46608;DHT22;32330;51.936;7.184;2023-07-29T12:13:10;25.40;99.90
46608;DHT22;32330;51.936;7.184;2023-07-29T12:15:38;25.30;97.90
46608;DHT22;32330;51.936;7.184;2023-07-29T12:18:06;25.40;1.00
46608;DHT22;32330;51.936;7.184;2023-07-29T12:20:35;25.60;1.10
46608;DHT22;32330;51.936;7.184;2023-07-29T12:23:03;26.00;1.00
46608;DHT22;32330;51.936;7.184;2023-07-29T12:25:31;26.40;99.90
46608;DHT22;32330;51.936;7.184;2023-07-29T12:28:03;26.50;77.60
46608;DHT22;32330;51.936;7.184;2023-07-29T12:30:32;26.50;9.50
46608;DHT22;32330;51.936;7.184;2023-07-29T12:32:59;26.70;92.80
46608;DHT22;32330;51.936;7.184;2023-07-29T12:35:35;26.60;1.00
46608;DHT22;32330;51.936;7.184;2023-07-29T12:38:02;26.50;99.90
46608;DHT22;32330;51.936;7.184;2023-07-29T12:40:30;26.60;99.90
46608;DHT22;32330;51.936;7.184;2023-07-29T12:42:57;26.80;99.90
46608;DHT22;32330;51.936;7.184;2023-07-29T12:45:25;26.90;99.90
46608;DHT22;32330;51.936;7.184;2023-07-29T12:47:55;27.20;14.60
46608;DHT22;32330;51.936;7.184;2023-07-29T12:50:23;27.00;99.90
46608;DHT22;32330;51.936;7.184;2023-07-29T12:52:50;27.20;99.90
46608;DHT22;32330;51.936;7.184;2023-07-29T12:55:18;26.80;99.90
46608;DHT22;32330;51.936;7.184;2023-07-29T12:57:47;26.90;99.90
46608;DHT22;32330;51.936;7.184;2023-07-29T13:00:14;26.70;99.90
46608;DHT22;32330;51.936;7.184;2023-07-29T13:02:43;26.80;99.90
46608;DHT22;32330;51.936;7.184;2023-07-29T13:05:11;26.80;57.00
46608;DHT22;32330;51.936;7.184;2023-07-29T13:07:39;26.50;18.90
46608;DHT22;32330;51.936;7.184;2023-07-29T13:10:07;26.30;91.30
46608;DHT22;32330;51.936;7.184;2023-07-29T13:12:35;26.00;74.80
46608;DHT22;32330;51.936;7.184;2023-07-29T13:15:02;25.70;99.90
46608;DHT22;32330;51.936;7.184;2023-07-29T13:17:30;25.80;99.90
46608;DHT22;32330;51.936;7.184;2023-07-29T13:19:59;25.80;99.90
46608;DHT22;32330;51.936;7.184;2023-07-29T13:22:26;25.60;99.90
46608;DHT22;32330;51.936;7.184;2023-07-29T13:24:53;25.40;99.90
46608;DHT22;32330;51.936;7.184;2023-07-29T13:27:20;25.40;95.80
46608;DHT22;32330;51.936;7.184;2023-07-29T13:29:48;25.50;99.90
46608;DHT22;32330;51.936;7.184;2023-07-29T13:32:15;25.50;97.20
46608;DHT22;32330;51.936;7.184;2023-07-29T13:34:43;25.30;99.90
46608;DHT22;32330;51.936;7.184;2023-07-29T13:37:14;25.00;75.70
46608;DHT22;32330;51.936;7.184;2023-07-29T13:39:42;25.00;99.90
46608;DHT22;32330;51.936;7.184;2023-07-29T13:42:09;24.80;99.90
46608;DHT22;32330;51.936;7.184;2023-07-29T13:44:37;24.70;99.90
46608;DHT22;32330;51.936;7.184;2023-07-29T13:47:05;24.50;1.00
46608;DHT22;32330;51.936;7.184;2023-07-29T13:49:34;24.60;1.00
46608;DHT22;32330;51.936;7.184;2023-07-29T13:52:02;24.30;79.20
46608;DHT22;32330;51.936;7.184;2023-07-29T13:54:32;23.00;99.90
46608;DHT22;32330;51.936;7.184;2023-07-29T13:56:58;22.40;1.00
46608;DHT22;32330;51.936;7.184;2023-07-29T13:59:25;22.20;5.10
46608;DHT22;32330;51.936;7.184;2023-07-29T14:01:53;22.30;24.10
46608;DHT22;32330;51.936;7.184;2023-07-29T14:04:20;22.20;1.00
46608;DHT22;32330;51.936;7.184;2023-07-29T14:06:47;22.30;1.00
46608;DHT22;32330;51.936;7.184;2023-07-29T14:09:14;22.20;1.00
46608;DHT22;32330;51.936;7.184;2023-07-29T14:11:42;21.90;1.00
46608;DHT22;32330;51.936;7.184;2023-07-29T14:14:09;21.90;2.00
46608;DHT22;32330;51.936;7.184;2023-07-29T14:16:36;21.70;16.30
46608;DHT22;32330;51.936;7.184;2023-07-29T14:19:03;21.50;32.50
46608;DHT22;32330;51.936;7.184;2023-07-29T14:21:30;21.50;40.60
46608;DHT22;32330;51.936;7.184;2023-07-29T14:23:57;21.30;26.10
46608;DHT22;32330;51.936;7.184;2023-07-29T14:26:24;21.30;24.20
46608;DHT22;32330;51.936;7.184;2023-07-29T14:28:52;21.00;1.00
46608;DHT22;32330;51.936;7.184;2023-07-29T14:31:20;20.80;6.40
46608;DHT22;32330;51.936;7.184;2023-07-29T14:33:47;20.90;14.40
46608;DHT22;32330;51.936;7.184;2023-07-29T14:36:15;21.10;6.40
46608;DHT22;32330;51.936;7.184;2023-07-29T14:38:42;21.00;9.70
46608;DHT22;32330;51.936;7.184;2023-07-29T14:41:09;21.40;18.00
46608;DHT22;32330;51.936;7.184;2023-07-29T14:43:36;21.60;9.20
46608;DHT22;32330;51.936;7.184;2023-07-29T14:46:05;21.80;12.20
46608;DHT22;32330;51.936;7.184;2023-07-29T14:48:32;21.80;3.40
46608;DHT22;32330;51.936;7.184;2023-07-29T14:50:59;22.00;1.00
46608;DHT22;32330;51.936;7.184;2023-07-29T14:53:26;22.10;1.00
46608;DHT22;32330;51.936;7.184;2023-07-29T14:55:53;22.10;20.30
46608;DHT22;32330;51.936;7.184;2023-07-29T14:58:20;22.30;1.00
46608;DHT22;32330;51.936;7.184;2023-07-29T15:00:47;22.60;1.00
46608;DHT22;32330;51.936;7.184;2023-07-29T15:03:15;23.00;1.00
46608;DHT22;32330;51.936;7.184;2023-07-29T15:05:42;23.40;1.00
46608;DHT22;32330;51.936;7.184;2023-07-29T15:08:09;23.60;1.00
46608;DHT22;32330;51.936;7.184;2023-07-29T15:10:36;23.60;1.00
46608;DHT22;32330;51.936;7.184;2023-07-29T15:13:03;23.60;99.90
46608;DHT22;32330;51.936;7.184;2023-07-29T15:15:30;23.70;1.00
46608;DHT22;32330;51.936;7.184;2023-07-29T15:17:57;23.70;99.90
46608;DHT22;32330;51.936;7.184;2023-07-29T15:20:25;23.90;1.00
46608;DHT22;32330;51.936;7.184;2023-07-29T15:22:52;23.80;99.90
46608;DHT22;32330;51.936;7.184;2023-07-29T15:25:19;23.70;99.90
46608;DHT22;32330;51.936;7.184;2023-07-29T15:27:46;23.90;99.90
46608;DHT22;32330;51.936;7.184;2023-07-29T15:30:13;23.70;99.90
46608;DHT22;32330;51.936;7.184;2023-07-29T15:32:40;23.90;1.00
46608;DHT22;32330;51.936;7.184;2023-07-29T15:35:08;23.90;99.90
46608;DHT22;32330;51.936;7.184;2023-07-29T15:37:36;23.80;99.90
46608;DHT22;32330;51.936;7.184;2023-07-29T15:40:04;23.90;99.90
46608;DHT22;32330;51.936;7.184;2023-07-29T15:42:32;23.80;99.90
46608;DHT22;32330;51.936;7.184;2023-07-29T15:44:59;23.80;99.90
46608;DHT22;32330;51.936;7.184;2023-07-29T15:47:26;24.10;99.90
46608;DHT22;32330;51.936;7.184;2023-07-29T15:49:53;24.20;99.90
46608;DHT22;32330;51.936;7.184;2023-07-29T15:52:19;24.30;99.90
46608;DHT22;32330;51.936;7.184;2023-07-29T15:54:49;24.40;99.90
46608;DHT22;32330;51.936;7.184;2023-07-29T15:57:17;24.40;99.90
46608;DHT22;32330;51.936;7.184;2023-07-29T15:59:44;24.40;99.90
46608;DHT22;32330;51.936;7.184;2023-07-29T16:02:11;24.30;99.90
46608;DHT22;32330;51.936;7.184;2023-07-29T16:04:38;24.40;99.90
46608;DHT22;32330;51.936;7.184;2023-07-29T16:07:05;24.50;99.90
46608;DHT22;32330;51.936;7.184;2023-07-29T16:09:32;24.30;99.90
46608;DHT22;32330;51.936;7.184;2023-07-29T16:12:01;24.10;99.90
46608;DHT22;32330;51.936;7.184;2023-07-29T16:14:28;24.40;99.90
46608;DHT22;32330;51.936;7.184;2023-07-29T16:16:55;24.20;99.90
46608;DHT22;32330;51.936;7.184;2023-07-29T16:19:24;24.50;99.90
46608;DHT22;32330;51.936;7.184;2023-07-29T16:21:51;24.80;99.90
46608;DHT22;32330;51.936;7.184;2023-07-29T16:24:18;24.50;99.90
46608;DHT22;32330;51.936;7.184;2023-07-29T16:26:45;24.20;99.90
46608;DHT22;32330;51.936;7.184;2023-07-29T16:29:14;24.40;99.90
46608;DHT22;32330;51.936;7.184;2023-07-29T16:31:41;24.40;99.90
46608;DHT22;32330;51.936;7.184;2023-07-29T16:34:08;24.50;99.90
46608;DHT22;32330;51.936;7.184;2023-07-29T16:36:35;24.40;99.90
46608;DHT22;32330;51.936;7.184;2023-07-29T16:39:02;24.00;99.90
46608;DHT22;32330;51.936;7.184;2023-07-29T16:41:30;23.80;99.90
46608;DHT22;32330;51.936;7.184;2023-07-29T16:43:57;23.60;99.90
46608;DHT22;32330;51.936;7.184;2023-07-29T16:46:25;23.70;99.90
46608;DHT22;32330;51.936;7.184;2023-07-29T16:48:52;23.70;99.90
46608;DHT22;32330;51.936;7.184;2023-07-29T16:51:19;23.50;99.90
46608;DHT22;32330;51.936;7.184;2023-07-29T16:53:46;23.60;99.90
46608;DHT22;32330;51.936;7.184;2023-07-29T16:56:13;23.20;99.90
46608;DHT22;32330;51.936;7.184;2023-07-29T16:58:40;23.20;99.90
46608;DHT22;32330;51.936;7.184;2023-07-29T17:01:07;23.40;99.90
46608;DHT22;32330;51.936;7.184;2023-07-29T17:03:36;23.50;99.90
46608;DHT22;32330;51.936;7.184;2023-07-29T17:06:03;23.50;99.90
46608;DHT22;32330;51.936;7.184;2023-07-29T17:08:30;23.50;99.90
46608;DHT22;32330;51.936;7.184;2023-07-29T17:10:57;23.50;99.90
46608;DHT22;32330;51.936;7.184;2023-07-29T17:13:23;23.40;99.90
46608;DHT22;32330;51.936;7.184;2023-07-29T17:15:50;23.30;99.90
46608;DHT22;32330;51.936;7.184;2023-07-29T17:18:17;23.20;1.00
46608;DHT22;32330;51.936;7.184;2023-07-29T17:20:46;23.00;1.00
46608;DHT22;32330;51.936;7.184;2023-07-29T17:23:13;23.00;1.00
46608;DHT22;32330;51.936;7.184;2023-07-29T17:25:40;22.80;1.00
46608;DHT22;32330;51.936;7.184;2023-07-29T17:28:07;22.70;1.00
46608;DHT22;32330;51.936;7.184;2023-07-29T17:30:34;22.60;1.00
46608;DHT22;32330;51.936;7.184;2023-07-29T17:33:01;22.70;1.00
46608;DHT22;32330;51.936;7.184;2023-07-29T17:35:28;22.70;1.00
46608;DHT22;32330;51.936;7.184;2023-07-29T17:37:57;22.60;1.00
46608;DHT22;32330;51.936;7.184;2023-07-29T17:40:24;22.40;7.60
46608;DHT22;32330;51.936;7.184;2023-07-29T17:42:51;22.50;16.30
46608;DHT22;32330;51.936;7.184;2023-07-29T17:45:18;22.40;17.70
46608;DHT22;32330;51.936;7.184;2023-07-29T17:47:45;22.40;17.90
46608;DHT22;32330;51.936;7.184;2023-07-29T17:50:12;22.40;19.20
46608;DHT22;32330;51.936;7.184;2023-07-29T17:52:39;22.40;23.00
46608;DHT22;32330;51.936;7.184;2023-07-29T17:55:07;22.50;22.50
46608;DHT22;32330;51.936;7.184;2023-07-29T17:57:34;22.60;47.20